createdAt,value
2023-03-30T00:01:23.085Z,99483.17
2023-03-30T00:04:11.756Z,99482.67
2023-03-30T00:06:58.725Z,99479.30
2023-03-30T00:09:45.978Z,99476.06
2023-03-30T00:12:32.403Z,99475.53
2023-03-30T00:15:23.073Z,99473.54
2023-03-30T00:18:10.233Z,99479.61
2023-03-30T00:20:57.911Z,99481.77
2023-03-30T00:23:48.227Z,99481.52
2023-03-30T00:26:34.969Z,99476.69
2023-03-30T00:29:21.193Z,99474.88
2023-03-30T00:32:09.010Z,99477.14
2023-03-30T00:34:56.373Z,99469.14
2023-03-30T00:37:45.057Z,99467.93
2023-03-30T00:40:34.542Z,99464.58
2023-03-30T00:43:22.250Z,99464.44
2023-03-30T00:46:10.377Z,99461.80
2023-03-30T00:49:04.785Z,99460.52
2023-03-30T00:51:51.928Z,99459.33
2023-03-30T00:54:39.905Z,99454.65
2023-03-30T00:57:27.933Z,99455.55
2023-03-30T01:00:14.771Z,99454.85
2023-03-30T01:03:09.102Z,99452.75
2023-03-30T01:05:59.345Z,99457.19
2023-03-30T01:08:45.949Z,99459.06
2023-03-30T01:11:32.390Z,99457.63
2023-03-30T01:14:18.887Z,99456.42
2023-03-30T01:17:32.149Z,99443.56
2023-03-30T01:20:49.235Z,99439.63
2023-03-30T01:24:03.824Z,99438.54
2023-03-30T01:27:13.505Z,99439.46
2023-03-30T01:30:27.276Z,99440.68
2023-03-30T01:33:39.725Z,99440.61
2023-03-30T01:36:53.714Z,99439.41
2023-03-30T01:40:13.686Z,99436.70
2023-03-30T01:43:20.246Z,99428.91
2023-03-30T01:46:17.615Z,99425.34
2023-03-30T01:49:31.600Z,99426.13
2023-03-30T01:52:38.007Z,99424.90
2023-03-30T01:55:40.978Z,99423.77
2023-03-30T01:58:36.637Z,99420.54
2023-03-30T02:01:25.658Z,99418.80
2023-03-30T02:04:13.817Z,99416.20
2023-03-30T02:07:10.459Z,99418.31
2023-03-30T02:10:02.441Z,99416.02
2023-03-30T02:12:51.528Z,99416.17
2023-03-30T02:15:51.401Z,99417.27
2023-03-30T02:18:38.268Z,99420.14
2023-03-30T02:21:25.204Z,99413.23
2023-03-30T02:24:20.886Z,99416.52
2023-03-30T02:27:07.557Z,99420.62
2023-03-30T02:29:55.756Z,99423.29
2023-03-30T02:32:48.898Z,99425.55
2023-03-30T02:35:57.398Z,99424.62
2023-03-30T02:38:53.809Z,99424.14
2023-03-30T02:42:09.648Z,99420.06
2023-03-30T02:45:20.291Z,99422.69
2023-03-30T02:48:15.541Z,99414.93
2023-03-30T02:51:29.666Z,99413.97
2023-03-30T02:54:58.500Z,99414.98
2023-03-30T02:58:45.339Z,99410.25
2023-03-30T03:01:50.989Z,99407.83
2023-03-30T03:04:42.857Z,99408.52
2023-03-30T03:07:45.029Z,99399.26
2023-03-30T03:10:35.724Z,99396.39
2023-03-30T03:13:23.801Z,99398.27
2023-03-30T03:16:11.583Z,99398.60
2023-03-30T03:18:58.571Z,99397.29
2023-03-30T03:21:46.317Z,99393.75
2023-03-30T03:24:38.497Z,99384.28
2023-03-30T03:28:00.304Z,99376.34
2023-03-30T03:30:53.649Z,99368.60
2023-03-30T03:33:43.754Z,99369.02
2023-03-30T03:36:38.800Z,99366.17
2023-03-30T03:39:25.331Z,99360.67
2023-03-30T03:42:12.452Z,99358.11
2023-03-30T03:45:10.768Z,99356.31
2023-03-30T03:48:07.816Z,99356.21
2023-03-30T03:51:01.780Z,99353.01
2023-03-30T03:53:53.247Z,99352.63
2023-03-30T03:56:40.019Z,99355.09
2023-03-30T03:59:27.438Z,99353.59
2023-03-30T04:02:14.387Z,99356.64
2023-03-30T04:05:01.206Z,99351.98
2023-03-30T04:07:48.546Z,99351.23
2023-03-30T04:10:34.972Z,99350.09
2023-03-30T04:13:31.454Z,99349.48
2023-03-30T04:16:41.014Z,99345.42
2023-03-30T04:19:41.363Z,99343.28
2023-03-30T04:22:41.344Z,99339.19
2023-03-30T04:25:39.982Z,99342.48
2023-03-30T04:28:35.438Z,99343.41
2023-03-30T04:31:56.078Z,99338.85
2023-03-30T04:34:54.805Z,99338.30
2023-03-30T04:37:41.778Z,99340.10
2023-03-30T04:40:50.220Z,99339.03
2023-03-30T04:43:53.113Z,99336.08
2023-03-30T04:47:06.537Z,99331.70
2023-03-30T04:50:22.662Z,99318.98
2023-03-30T04:53:27.744Z,99324.35
2023-03-30T04:56:32.916Z,99319.12
2023-03-30T04:59:44.221Z,99319.23
2023-03-30T05:03:06.165Z,99314.30
2023-03-30T05:06:26.699Z,99314.05
2023-03-30T05:09:36.847Z,99310.13
2023-03-30T05:12:42.321Z,99311.58
2023-03-30T05:15:34.323Z,99304.05
2023-03-30T05:18:30.596Z,99308.50
2023-03-30T05:21:36.367Z,99308.23
2023-03-30T05:24:26.119Z,99310.85
2023-03-30T05:27:13.009Z,99310.15
2023-03-30T05:30:07.706Z,99312.11
2023-03-30T05:33:23.728Z,99317.27
2023-03-30T05:36:29.203Z,99312.91
2023-03-30T05:39:34.312Z,99312.36
2023-03-30T05:42:29.417Z,99312.44
2023-03-30T05:45:34.552Z,99312.53
2023-03-30T05:48:24.065Z,99311.02
2023-03-30T05:51:43.140Z,99306.41
2023-03-30T05:54:42.773Z,99301.01
2023-03-30T05:57:46.449Z,99299.39
2023-03-30T06:01:05.593Z,99296.25
2023-03-30T06:03:54.645Z,99294.84
2023-03-30T06:06:41.604Z,99289.92
2023-03-30T06:09:28.813Z,99291.60
2023-03-30T06:12:15.689Z,99290.95
2023-03-30T06:15:02.692Z,99291.15
2023-03-30T06:18:13.188Z,99291.34
2023-03-30T06:21:08.354Z,99286.88
2023-03-30T06:24:26.973Z,99290.66
2023-03-30T06:27:14.337Z,99289.27
2023-03-30T06:30:03.212Z,99286.76
2023-03-30T06:32:51.361Z,99281.23
2023-03-30T06:35:55.794Z,99283.95
2023-03-30T06:38:43.166Z,99286.38
2023-03-30T06:41:29.990Z,99284.02
2023-03-30T06:44:17.292Z,99285.94
2023-03-30T06:47:07.120Z,99281.74
2023-03-30T06:49:54.025Z,99285.79
2023-03-30T06:53:01.156Z,99280.42
2023-03-30T06:55:57.882Z,99281.38
2023-03-30T06:58:46.275Z,99284.49
2023-03-30T07:01:33.045Z,99280.46
2023-03-30T07:04:19.694Z,99281.00
2023-03-30T07:07:30.457Z,99283.70
2023-03-30T07:10:17.040Z,99283.27
2023-03-30T07:13:04.112Z,99282.09
2023-03-30T07:15:51.859Z,99276.40
2023-03-30T07:18:38.771Z,99278.19
2023-03-30T07:21:25.543Z,99274.63
2023-03-30T07:24:12.972Z,99273.65
2023-03-30T07:27:00.052Z,99272.22
2023-03-30T07:29:46.699Z,99267.16
2023-03-30T07:32:34.938Z,99261.98
2023-03-30T07:35:21.484Z,99254.96
2023-03-30T07:38:08.376Z,99251.58
2023-03-30T07:41:00.123Z,99236.45
2023-03-30T07:43:46.947Z,99246.36
2023-03-30T07:46:34.153Z,99244.09
2023-03-30T07:49:21.222Z,99245.67
2023-03-30T07:52:08.843Z,99244.11
2023-03-30T07:55:04.998Z,99240.86
2023-03-30T07:58:00.775Z,99237.92
2023-03-30T08:00:48.022Z,99237.55
2023-03-30T08:03:56.307Z,99221.86
2023-03-30T08:06:43.563Z,99237.39
2023-03-30T08:09:32.932Z,99230.40
2023-03-30T08:12:22.514Z,99234.95
2023-03-30T08:15:09.829Z,99228.11
2023-03-30T08:17:56.950Z,99224.65
2023-03-30T08:20:43.445Z,99219.23
2023-03-30T08:23:30.073Z,99217.45
2023-03-30T08:26:17.516Z,99216.46
2023-03-30T08:29:03.979Z,99216.44
2023-03-30T08:31:54.468Z,99218.20
2023-03-30T08:34:41.336Z,99210.77
2023-03-30T08:37:28.218Z,99207.23
2023-03-30T08:40:19.207Z,99198.34
2023-03-30T08:43:45.202Z,99191.61
2023-03-30T08:46:32.531Z,99187.27
2023-03-30T08:49:20.660Z,99191.69
2023-03-30T08:52:21.140Z,99187.45
2023-03-30T08:55:44.059Z,99180.16
2023-03-30T08:58:53.753Z,99175.17
2023-03-30T09:02:03.309Z,99178.58
2023-03-30T09:04:57.343Z,99172.30
2023-03-30T09:08:09.645Z,99165.86
2023-03-30T09:11:01.929Z,99161.95
2023-03-30T09:13:50.597Z,99158.70
2023-03-30T09:16:48.907Z,99155.38
2023-03-30T09:20:20.119Z,99154.18
2023-03-30T09:23:15.965Z,99151.75
2023-03-30T09:26:41.272Z,99140.06
2023-03-30T09:29:33.814Z,99133.60
2023-03-30T09:32:36.775Z,99133.41
2023-03-30T09:35:37.458Z,99119.80
2023-03-30T09:38:23.905Z,99109.47
2023-03-30T09:41:53.467Z,99105.91
2023-03-30T09:44:56.413Z,99099.54
2023-03-30T09:47:42.957Z,99092.02
2023-03-30T09:50:30.200Z,99093.23
2023-03-30T09:53:31.001Z,99079.11
2023-03-30T09:56:46.405Z,99077.77
2023-03-30T09:59:37.503Z,99072.87
2023-03-30T10:02:30.597Z,99056.40
2023-03-30T10:05:18.514Z,99058.08
2023-03-30T10:08:23.745Z,99044.48
2023-03-30T10:11:12.872Z,99034.03
2023-03-30T10:14:00.308Z,99034.54
2023-03-30T10:16:48.321Z,99027.25
2023-03-30T10:19:38.046Z,99037.92
2023-03-30T10:22:26.572Z,99033.52
2023-03-30T10:25:26.777Z,99030.11
2023-03-30T10:28:26.531Z,99029.18
2023-03-30T10:31:17.649Z,99027.45
2023-03-30T10:34:32.889Z,99020.02
2023-03-30T10:37:34.480Z,99018.19
2023-03-30T10:40:43.581Z,99015.48
2023-03-30T10:43:32.833Z,99005.84
2023-03-30T10:46:23.711Z,99012.14
2023-03-30T10:49:26.575Z,99011.98
2023-03-30T10:52:59.052Z,99013.02
2023-03-30T10:56:22.722Z,99017.80
2023-03-30T10:59:33.297Z,99015.43
2023-03-30T11:02:53.106Z,99014.40
2023-03-30T11:05:44.053Z,99009.98
2023-03-30T11:08:42.080Z,99015.91
2023-03-30T11:11:46.649Z,99025.25
2023-03-30T11:15:03.670Z,99017.95
2023-03-30T11:18:08.182Z,99005.64
2023-03-30T11:21:05.136Z,99003.43
2023-03-30T11:24:07.097Z,98987.83
2023-03-30T11:27:24.048Z,98975.40
2023-03-30T11:30:33.455Z,98966.09
2023-03-30T11:33:50.965Z,98954.64
2023-03-30T11:36:57.262Z,98958.33
2023-03-30T11:39:54.717Z,98955.37
2023-03-30T11:42:42.649Z,98949.02
2023-03-30T11:45:44.216Z,98951.50
2023-03-30T11:48:46.301Z,98944.19
2023-03-30T11:52:04.951Z,98932.00
2023-03-30T11:55:17.590Z,98930.46
2023-03-30T11:58:24.672Z,98924.30
2023-03-30T12:01:49.787Z,98917.25
2023-03-30T12:04:50.739Z,98918.09
2023-03-30T12:08:28.335Z,98911.36
2023-03-30T12:11:35.923Z,98906.77
2023-03-30T12:14:45.227Z,98904.13
2023-03-30T12:18:00.666Z,98901.03
2023-03-30T12:21:04.127Z,98902.58
2023-03-30T12:24:29.839Z,98900.10
2023-03-30T12:27:16.473Z,98903.99
2023-03-30T12:30:23.136Z,98907.99
2023-03-30T12:33:28.096Z,98899.77
2023-03-30T12:36:40.389Z,98893.67
2023-03-30T12:40:19.935Z,98885.27
2023-03-30T12:43:36.836Z,98894.19
2023-03-30T12:46:35.322Z,98894.42
2023-03-30T12:49:58.828Z,98878.58
2023-03-30T12:53:35.746Z,98871.11
2023-03-30T12:57:32.194Z,98865.61
2023-03-30T13:01:01.058Z,98852.69
2023-03-30T13:03:54.768Z,98844.54
2023-03-30T13:07:13.415Z,98842.00
2023-03-30T13:10:06.204Z,98834.05
2023-03-30T13:12:56.570Z,98829.92
2023-03-30T13:15:51.902Z,98836.27
2023-03-30T13:18:47.755Z,98827.39
2023-03-30T13:21:54.695Z,98827.10
2023-03-30T13:24:58.757Z,98821.65
2023-03-30T13:27:45.915Z,98821.07
2023-03-30T13:30:34.049Z,98809.73
2023-03-30T13:33:23.442Z,98796.64
2023-03-30T13:36:18.273Z,98791.58
2023-03-30T13:40:08.290Z,98788.41
2023-03-30T13:43:22.447Z,98795.87
2023-03-30T13:46:41.340Z,98793.23
2023-03-30T13:49:46.117Z,98793.35
2023-03-30T13:52:43.089Z,98795.64
2023-03-30T13:55:47.640Z,98791.59
2023-03-30T13:58:38.952Z,98787.03
2023-03-30T14:01:26.346Z,98784.02
2023-03-30T14:04:16.306Z,98778.55
2023-03-30T14:07:25.082Z,98769.80
2023-03-30T14:10:19.749Z,98761.74
2023-03-30T14:13:11.091Z,98760.73
2023-03-30T14:15:58.765Z,98758.49
2023-03-30T14:18:46.820Z,98756.07
2023-03-30T14:21:36.277Z,98751.19
2023-03-30T14:24:32.524Z,98745.91
2023-03-30T14:27:19.077Z,98742.44
2023-03-30T14:30:23.749Z,98740.22
2023-03-30T14:33:12.649Z,98736.88
2023-03-30T14:36:03.024Z,98727.20
2023-03-30T14:38:54.598Z,98721.33
2023-03-30T14:41:43.610Z,98722.59
2023-03-30T14:44:31.651Z,98724.73
2023-03-30T14:47:23.122Z,98723.23
2023-03-30T14:50:11.212Z,98730.25
2023-03-30T14:52:59.191Z,98727.73
2023-03-30T14:55:45.710Z,98720.72
2023-03-30T14:58:33.030Z,98714.80
2023-03-30T15:01:33.973Z,98713.28
2023-03-30T15:04:24.070Z,98712.27
2023-03-30T15:07:16.987Z,98705.23
2023-03-30T15:10:03.953Z,98705.58
2023-03-30T15:12:57.353Z,98704.70
2023-03-30T15:15:44.381Z,98702.17
2023-03-30T15:18:32.593Z,98699.59
2023-03-30T15:21:20.101Z,98695.06
2023-03-30T15:24:09.891Z,98695.09
2023-03-30T15:26:59.774Z,98695.98
2023-03-30T15:29:46.770Z,98685.46
2023-03-30T15:32:42.987Z,98686.31
2023-03-30T15:35:37.422Z,98683.20
2023-03-30T15:38:35.353Z,98683.68
2023-03-30T15:41:42.858Z,98682.40
2023-03-30T15:44:37.155Z,98678.21
2023-03-30T15:47:24.968Z,98679.48
2023-03-30T15:50:16.521Z,98671.91
2023-03-30T15:53:03.623Z,98665.80
2023-03-30T15:55:51.626Z,98659.52
2023-03-30T15:58:39.049Z,98654.75
2023-03-30T16:01:41.616Z,98657.39
2023-03-30T16:04:32.136Z,98648.89
2023-03-30T16:07:22.415Z,98648.66
2023-03-30T16:10:20.238Z,98647.25
2023-03-30T16:13:12.676Z,98639.85
2023-03-30T16:15:59.016Z,98632.73
2023-03-30T16:18:45.534Z,98631.79
2023-03-30T16:21:32.221Z,98628.44
2023-03-30T16:24:18.910Z,98626.39
2023-03-30T16:27:06.163Z,98623.71
2023-03-30T16:29:52.662Z,98625.03
2023-03-30T16:32:39.072Z,98618.55
2023-03-30T16:35:25.626Z,98615.82
2023-03-30T16:38:18.411Z,98614.86
2023-03-30T16:41:06.472Z,98604.16
2023-03-30T16:43:55.948Z,98603.69
2023-03-30T16:46:43.084Z,98602.01
2023-03-30T16:49:29.496Z,98599.08
2023-03-30T16:52:16.167Z,98600.31
2023-03-30T16:55:02.606Z,98602.46
2023-03-30T16:57:49.066Z,98592.88
2023-03-30T17:00:46.533Z,98590.64
2023-03-30T17:03:33.264Z,98579.58
2023-03-30T17:06:21.874Z,98580.29
2023-03-30T17:09:19.029Z,98574.73
2023-03-30T17:12:05.894Z,98562.91
2023-03-30T17:14:52.542Z,98555.23
2023-03-30T17:17:40.511Z,98554.91
2023-03-30T17:20:36.560Z,98553.88
2023-03-30T17:23:26.882Z,98559.55
2023-03-30T17:26:13.649Z,98560.69
2023-03-30T17:28:59.928Z,98553.10
2023-03-30T17:31:47.055Z,98554.05
2023-03-30T17:34:33.547Z,98555.27
2023-03-30T17:37:20.597Z,98559.51
2023-03-30T17:40:16.719Z,98560.02
2023-03-30T17:43:03.243Z,98557.98
2023-03-30T17:45:50.164Z,98552.83
2023-03-30T17:48:37.218Z,98552.21
2023-03-30T17:51:23.774Z,98549.73
2023-03-30T17:54:10.859Z,98550.36
2023-03-30T17:56:59.537Z,98547.92
2023-03-30T17:59:46.133Z,98544.40
2023-03-30T18:02:33.052Z,98544.16
2023-03-30T18:05:26.119Z,98541.41
2023-03-30T18:08:18.705Z,98546.80
2023-03-30T18:11:05.381Z,98542.30
2023-03-30T18:13:53.786Z,98539.29
2023-03-30T18:16:43.689Z,98537.95
2023-03-30T18:19:30.666Z,98533.55
2023-03-30T18:22:17.459Z,98533.11
2023-03-30T18:25:04.967Z,98526.73
2023-03-30T18:27:52.325Z,98522.95
2023-03-30T18:30:38.942Z,98519.97
2023-03-30T18:33:26.552Z,98519.28
2023-03-30T18:36:14.070Z,98518.95
2023-03-30T18:39:00.656Z,98520.33
2023-03-30T18:41:50.473Z,98522.88
2023-03-30T18:44:36.970Z,98520.83
2023-03-30T18:47:25.807Z,98521.89
2023-03-30T18:50:18.973Z,98517.02
2023-03-30T18:53:08.857Z,98516.88
2023-03-30T18:55:59.725Z,98514.16
2023-03-30T18:58:46.206Z,98511.58
2023-03-30T19:01:32.530Z,98513.95
2023-03-30T19:04:19.331Z,98505.13
2023-03-30T19:07:06.755Z,98495.60
2023-03-30T19:09:53.054Z,98494.20
2023-03-30T19:12:40.599Z,98492.13
2023-03-30T19:15:31.249Z,98495.83
2023-03-30T19:18:18.929Z,98496.29
2023-03-30T19:21:06.420Z,98494.69
2023-03-30T19:23:54.445Z,98493.79
2023-03-30T19:26:40.962Z,98494.92
2023-03-30T19:29:27.414Z,98494.20
2023-03-30T19:32:16.024Z,98488.80
2023-03-30T19:35:05.033Z,98490.20
2023-03-30T19:38:05.791Z,98493.48
2023-03-30T19:41:04.605Z,98489.80
2023-03-30T19:43:56.313Z,98488.94
2023-03-30T19:46:45.159Z,98488.97
2023-03-30T19:49:46.236Z,98489.05
2023-03-30T19:52:45.988Z,98484.40
2023-03-30T19:55:43.621Z,98487.97
2023-03-30T19:58:43.183Z,98485.55
2023-03-30T20:01:45.867Z,98488.65
2023-03-30T20:05:05.316Z,98483.77
2023-03-30T20:07:52.617Z,98482.29
2023-03-30T20:10:39.354Z,98487.55
2023-03-30T20:13:26.754Z,98480.92
2023-03-30T20:16:23.750Z,98485.59
2023-03-30T20:19:28.468Z,98486.35
2023-03-30T20:22:19.265Z,98477.69
2023-03-30T20:25:09.581Z,98474.81
2023-03-30T20:27:56.611Z,98472.16
2023-03-30T20:30:43.365Z,98469.58
2023-03-30T20:33:32.706Z,98467.45
2023-03-30T20:36:21.352Z,98471.39
2023-03-30T20:39:09.229Z,98468.98
2023-03-30T20:41:57.577Z,98468.90
2023-03-30T20:44:49.436Z,98468.85
2023-03-30T20:47:37.007Z,98460.55
2023-03-30T20:50:23.702Z,98458.07
2023-03-30T20:53:10.072Z,98451.59
2023-03-30T20:55:57.250Z,98448.34
2023-03-30T20:58:44.141Z,98447.27
2023-03-30T21:01:31.047Z,98446.14
2023-03-30T21:04:18.962Z,98447.61
2023-03-30T21:07:05.225Z,98443.02
2023-03-30T21:09:52.121Z,98445.15
2023-03-30T21:12:38.831Z,98443.19
2023-03-30T21:15:27.716Z,98445.59
2023-03-30T21:18:14.474Z,98442.87
2023-03-30T21:21:01.612Z,98443.01
2023-03-30T21:23:48.320Z,98442.25
2023-03-30T21:26:34.939Z,98443.20
2023-03-30T21:29:22.541Z,98437.64
2023-03-30T21:32:08.756Z,98442.13
2023-03-30T21:34:55.225Z,98439.32
2023-03-30T21:37:41.842Z,98438.27
2023-03-30T21:40:27.996Z,98437.40
2023-03-30T21:43:19.042Z,98445.59
2023-03-30T21:46:11.837Z,98447.61
2023-03-30T21:49:02.444Z,98446.80
2023-03-30T21:51:49.024Z,98446.85
2023-03-30T21:54:35.616Z,98443.64
2023-03-30T21:57:22.447Z,98436.70
2023-03-30T22:00:11.515Z,98436.15
2023-03-30T22:03:03.775Z,98436.35
2023-03-30T22:06:01.510Z,98437.50
2023-03-30T22:08:50.709Z,98438.49
2023-03-30T22:11:42.017Z,98433.58
2023-03-30T22:14:31.849Z,98436.69
2023-03-30T22:17:19.543Z,98437.13
2023-03-30T22:20:11.255Z,98435.05
2023-03-30T22:22:58.239Z,98435.96
2023-03-30T22:25:46.052Z,98433.61
2023-03-30T22:28:32.589Z,98434.55
2023-03-30T22:31:19.095Z,98436.08
2023-03-30T22:34:06.689Z,98435.52
2023-03-30T22:36:53.792Z,98440.39
2023-03-30T22:39:40.103Z,98439.95
2023-03-30T22:42:26.886Z,98444.23
2023-03-30T22:45:15.447Z,98443.46
2023-03-30T22:48:02.038Z,98441.91
2023-03-30T22:50:48.674Z,98435.51
2023-03-30T22:53:35.276Z,98439.21
2023-03-30T22:56:21.737Z,98438.88
2023-03-30T22:59:08.091Z,98439.77
2023-03-30T23:01:54.811Z,98439.98
2023-03-30T23:04:41.089Z,98437.11
2023-03-30T23:07:33.629Z,98435.63
2023-03-30T23:10:24.939Z,98438.09
2023-03-30T23:13:11.447Z,98437.71
2023-03-30T23:15:59.085Z,98434.22
2023-03-30T23:18:45.408Z,98430.57
2023-03-30T23:21:35.290Z,98429.09
2023-03-30T23:24:21.644Z,98429.25
2023-03-30T23:27:08.052Z,98429.67
2023-03-30T23:29:55.211Z,98430.88
2023-03-30T23:32:41.552Z,98432.90
2023-03-30T23:35:28.520Z,98431.19
2023-03-30T23:38:15.057Z,98433.98
2023-03-30T23:41:02.284Z,98430.63
2023-03-30T23:43:49.231Z,98432.95
2023-03-30T23:46:38.252Z,98435.70
2023-03-30T23:49:24.878Z,98430.42
2023-03-30T23:52:11.821Z,98426.35
2023-03-30T23:55:01.332Z,98423.99
2023-03-30T23:57:47.788Z,98428.86
